Map

Track Data

SID SEASON NUMBER BASIN SUBBASIN NAME ISO_TIME NATURE LAT LON WMO_WIND WMO_PRES WMO_AGENCY TRACK_TYPE DIST2LAND LANDFALL IFLAG USA_AGENCY USA_ATCF_ID USA_LAT USA_LON USA_RECORD USA_STATUS USA_WIND USA_PRES USA_SSHS USA_R34_NE USA_R34_SE USA_R34_SW USA_R34_NW USA_R50_NE USA_R50_SE USA_R50_SW USA_R50_NW USA_R64_NE USA_R64_SE USA_R64_SW USA_R64_NW USA_POCI USA_ROCI USA_RMW USA_EYE TOKYO_LAT TOKYO_LON TOKYO_GRADE TOKYO_WIND TOKYO_PRES TOKYO_R50_DIR TOKYO_R50_LONG TOKYO_R50_SHORT TOKYO_R30_DIR TOKYO_R30_LONG TOKYO_R30_SHORT TOKYO_LAND CMA_LAT CMA_LON CMA_CAT CMA_WIND CMA_PRES HKO_LAT HKO_LON HKO_CAT HKO_WIND HKO_PRES NEWDELHI_LAT NEWDELHI_LON NEWDELHI_GRADE NEWDELHI_WIND NEWDELHI_PRES NEWDELHI_CI NEWDELHI_DP NEWDELHI_POCI REUNION_LAT REUNION_LON REUNION_TYPE REUNION_WIND REUNION_PRES REUNION_TNUM REUNION_CI REUNION_RMW REUNION_R34_NE REUNION_R34_SE REUNION_R34_SW REUNION_R34_NW REUNION_R50_NE REUNION_R50_SE REUNION_R50_SW REUNION_R50_NW REUNION_R64_NE REUNION_R64_SE REUNION_R64_SW REUNION_R64_NW BOM_LAT BOM_LON BOM_TYPE BOM_WIND BOM_PRES BOM_TNUM BOM_CI BOM_RMW BOM_R34_NE BOM_R34_SE BOM_R34_SW BOM_R34_NW BOM_R50_NE BOM_R50_SE BOM_R50_SW BOM_R50_NW BOM_R64_NE BOM_R64_SE BOM_R64_SW BOM_R64_NW BOM_ROCI BOM_POCI BOM_EYE BOM_POS_METHOD BOM_PRES_METHOD NADI_LAT NADI_LON NADI_CAT NADI_WIND NADI_PRES WELLINGTON_LAT WELLINGTON_LON WELLINGTON_WIND WELLINGTON_PRES DS824_LAT DS824_LON DS824_STAGE DS824_WIND DS824_PRES TD9636_LAT TD9636_LON TD9636_STAGE TD9636_WIND TD9636_PRES TD9635_LAT TD9635_LON TD9635_WIND TD9635_PRES TD9635_ROCI NEUMANN_LAT NEUMANN_LON NEUMANN_CLASS NEUMANN_WIND NEUMANN_PRES MLC_LAT MLC_LON MLC_CLASS MLC_WIND MLC_PRES USA_GUST BOM_GUST BOM_GUST_PER REUNION_GUST REUNION_GUST_PER USA_SEAHGT USA_SEARAD_NE USA_SEARAD_SE USA_SEARAD_SW USA_SEARAD_NW STORM_SPEED STORM_DIR
1956227N18088 1956 74 NI BB NOT_NAMED 1956-08-13 18:00:00 TS 17.6000 88.2000 main 328 319 O________O____ jtwc_io IO081956 17.6000 88.2000 -1 17.6000 88.2000 TC 2 340
1956227N18088 1956 74 NI BB NOT_NAMED 1956-08-13 21:00:00 TS 17.7050 88.1625 main 319 304 P________P____ IO081956 17.7050 88.1625 -1 17.7050 88.1625 TC 2 333
1956227N18088 1956 74 NI BB NOT_NAMED 1956-08-14 00:00:00 TS 17.8000 88.1000 main 304 288 O________O____ jtwc_io IO081956 17.8000 88.1000 -1 17.8000 88.1000 TC 25 2 320
1956227N18088 1956 74 NI BB NOT_NAMED 1956-08-14 03:00:00 TS 17.8867 88.0000 main 288 273 P________PO___ IO081956 17.8850 88.0000 -1 17.8850 88.0000 TC 25 17.9000 88.0000 1 3 319
1956227N18088 1956 74 NI BB NOT_NAMED 1956-08-14 06:00:00 TS 18.0141 87.9050 main 273 255 O________OP___ jtwc_io IO081956 18.0000 87.9000 -1 18.0000 87.9000 TC 25 18.0703 87.9251 1 4 336
1956227N18088 1956 74 NI BB NOT_NAMED 1956-08-14 09:00:00 TS 18.2089 87.8500 main 255 231 P________PP___ IO081956 18.2000 87.8500 -1 18.2000 87.8500 TC 25 18.2325 87.8501 1 4 344
1956227N18088 1956 74 NI BB NOT_NAMED 1956-08-14 12:00:00 TS 18.3928 87.7917 main 231 216 O________OP___ jtwc_io IO081956 18.4000 87.8000 -1 18.4000 87.8000 TC 25 18.3784 87.7750 1 3 335
1956227N18088 1956 74 NI BB NOT_NAMED 1956-08-14 15:00:00 TS 18.5100 87.7000 main 216 200 P________PO___ IO081956 18.5150 87.7000 -1 18.5150 87.7000 TC 25 18.5000 87.7000 1 3 320
1956227N18088 1956 74 NI BB NOT_NAMED 1956-08-14 18:00:00 TS 18.5980 87.6089 main 200 185 O________OP___ jtwc_io IO081956 18.6000 87.6000 -1 18.6000 87.6000 TC 25 18.5941 87.6266 1 2 320
1956227N18088 1956 74 NI BB NOT_NAMED 1956-08-14 21:00:00 TS 18.6875 87.5442 main 185 176 P________PP___ IO081956 18.6925 87.5350 -1 18.6925 87.5350 TC 25 18.6775 87.5626 1 2 333
1956227N18088 1956 74 NI BB NOT_NAMED 1956-08-15 00:00:00 TS 18.7907 87.5058 main 176 168 O________OP___ jtwc_io IO081956 18.8000 87.5000 -1 18.8000 87.5000 TC 25 18.7722 87.5173 1 2 347
1956227N18088 1956 74 NI BB NOT_NAMED 1956-08-15 03:00:00 TS 18.9183 87.4900 main 168 153 P________PO___ IO081956 18.9275 87.4850 -1 18.9275 87.4850 TC 25 18.9000 87.5000 1 3 0
1956227N18088 1956 74 NI BB NOT_NAMED 1956-08-15 06:00:00 TS 19.1004 87.5057 main 153 139 O________OP___ jtwc_io IO081956 19.1000 87.5000 -1 19.1000 87.5000 TC 25 19.1012 87.5171 1 4 8
1956227N18088 1956 74 NI BB NOT_NAMED 1956-08-15 09:00:00 TS 19.3400 87.5441 main 139 122 P________PP___ IO081956 19.3425 87.5350 -1 19.3425 87.5350 TC 25 19.3350 87.5623 1 5 11
1956227N18088 1956 74 NI BB NOT_NAMED 1956-08-15 12:00:00 TS 19.5921 87.6088 main 122 115 O________OP___ jtwc_io IO081956 19.6000 87.6000 -1 19.6000 87.6000 TC 25 19.5763 87.6265 1 5 17
1956227N18088 1956 74 NI BB NOT_NAMED 1956-08-15 15:00:00 TS 19.8150 87.7000 main 118 113 P________PO___ IO081956 19.8225 87.7000 -1 19.8225 87.7000 TC 25 19.8000 87.7000 1 4 23
1956227N18088 1956 74 NI BB NOT_NAMED 1956-08-15 18:00:00 TS 19.9770 87.7840 main 114 107 O________OP___ jtwc_io IO081956 20.0000 87.8000 -1 20.0000 87.8000 TC 25 19.9309 87.7520 1 3 27
1956227N18088 1956 74 NI BB NOT_NAMED 1956-08-15 21:00:00 TS 20.0775 87.8378 main 107 107 P________PP___ IO081956 20.0925 87.8501 -1 20.0925 87.8501 TC 25 20.0474 87.8132 1 2 26
1956227N18088 1956 74 NI BB NOT_NAMED 1956-08-16 00:00:00 TS 20.1967 87.8976 main 109 103 O________OP___ jtwc_io IO081956 20.2000 87.9000 -1 20.2000 87.9000 TC 25 20.1902 87.8928 1 4 23
1956227N18088 1956 74 NI BB NOT_NAMED 1956-08-16 03:00:00 TS 20.3983 87.9851 main 109 101 P________PO___ IO081956 20.3975 87.9777 -1 20.3975 87.9777 TC 25 20.4000 88.0000 1 6 22
1956227N18088 1956 74 NI BB NOT_NAMED 1956-08-16 06:00:00 TS 20.7135 88.1206 main 101 55 O________OP___ jtwc_io IO081956 20.7000 88.1000 -1 20.7000 88.1000 TC 25 20.7405 88.1618 1 8 22
1956227N18088 1956 74 NI BB NOT_NAMED 1956-08-16 09:00:00 TS 21.1343 88.3112 main 55 0 P________PP___ IO081956 21.1276 88.2923 -1 21.1276 88.2923 TC 25 21.1478 88.3490 1 10 23
1956227N18088 1956 74 NI BB NOT_NAMED 1956-08-16 12:00:00 TS 21.5937 88.5123 main 0 0 O________OP___ jtwc_io IO081956 21.6000 88.5000 -1 21.6000 88.5000 TC 25 21.5811 88.5368 1 9 21
1956227N18088 1956 74 NI BB NOT_NAMED 1956-08-16 15:00:00 TS 22.0050 88.6767 main 0 0 P________PO___ IO081956 22.0075 88.6651 -1 22.0075 88.6651 TC 25 22.0000 88.7000 1 9 19
1956227N18088 1956 74 NI BB NOT_NAMED 1956-08-16 18:00:00 TS 22.3997 88.8054 main 0 0 O________OP___ jtwc_io IO081956 22.4000 88.8000 -1 22.4000 88.8000 TC 25 22.3993 88.8162 1 9 15
1956227N18088 1956 74 NI BB NOT_NAMED 1956-08-16 21:00:00 TS 22.8249 88.9159 main 0 0 P________PP___ IO081956 22.8525 88.9225 -1 22.8525 88.9225 TC 25 22.7699 88.9028 1 8 12
1956227N18088 1956 74 NI BB NOT_NAMED 1956-08-17 00:00:00 TS 23.1602 88.9876 main 0 0 O________OP___ jtwc_io IO081956 23.2000 89.0000 -1 23.2000 89.0000 TC 25 23.0805 88.9630 1 5 10
1956227N18088 1956 74 NI BB NOT_NAMED 1956-08-17 03:00:00 TS 23.3067 89.0101 main 0 0 P________PO___ IO081956 23.3100 89.0151 -1 23.3100 89.0151 TC 25 23.3000 89.0000 1 2 8
1956227N18088 1956 74 NI BB NOT_NAMED 1956-08-17 06:00:00 TS 23.3311 89.0073 main 0 0 O________OP___ jtwc_io IO081956 23.3000 89.0000 -1 23.3000 89.0000 TC 25 23.3934 89.0218 1 0 321
1956227N18088 1956 74 NI BB NOT_NAMED 1956-08-17 09:00:00 TS 23.3375 89.0076 main 0 0 P________PP___ IO081956 23.3075 89.0000 -1 23.3075 89.0000 TC 25 23.3975 89.0227 1 0 0
1956227N18088 1956 74 NI BB NOT_NAMED 1956-08-17 12:00:00 TS 23.3176 89.0041 main 0 0 O________OP___ jtwc_io IO081956 23.3000 89.0000 -1 23.3000 89.0000 TC 25 23.3528 89.0123 1 0 199
1956227N18088 1956 74 NI BB NOT_NAMED 1956-08-17 15:00:00 TS 23.3000 89.0000 main 0 0 P________PO___ IO081956 23.3000 89.0000 -1 23.3000 89.0000 TC 25 23.3000 89.0000 1 0 221
1956227N18088 1956 74 NI BB NOT_NAMED 1956-08-17 18:00:00 TS 23.2878 88.9987 main 0 0 O________OP___ jtwc_io IO081956 23.3000 89.0000 -1 23.3000 89.0000 TC 25 23.2634 88.9960 1 0 0
1956227N18088 1956 74 NI BB NOT_NAMED 1956-08-17 21:00:00 TS 23.2725 88.9975 main 0 0 P________PP___ IO081956 23.2925 89.0000 -1 23.2925 89.0000 TC 25 23.2325 88.9926 1 0 0
1956227N18088 1956 74 NI BB NOT_NAMED 1956-08-18 00:00:00 TS 23.2784 88.9976 main 0 0 O________OP___ jtwc_io IO081956 23.3000 89.0000 -1 23.3000 89.0000 TC 25 23.2353 88.9929 1 0 321
1956227N18088 1956 74 NI BB NOT_NAMED 1956-08-18 03:00:00 TS 23.3033 88.9950 main 0 0 P________PO___ IO081956 23.3050 88.9925 -1 23.3050 88.9925 TC 25 23.3000 89.0000 1 1 0
1956227N18088 1956 74 NI BB NOT_NAMED 1956-08-18 06:00:00 TS 23.4228 89.0099 main 0 0 O________OP___ jtwc_io IO081956 23.4000 89.0000 -1 23.4000 89.0000 TC 25 23.4684 89.0298 1 4 9
1956227N18088 1956 74 NI BB NOT_NAMED 1956-08-18 09:00:00 TS 23.6842 89.0548 main 0 0 P________PP___ IO081956 23.6775 89.0499 -1 23.6775 89.0499 TC 25 23.6975 89.0647 1 6 8
1956227N18088 1956 74 NI BB NOT_NAMED 1956-08-18 12:00:00 TS 23.9843 89.0974 main 0 0 O________OP___ jtwc_io IO081956 24.0000 89.1000 -1 24.0000 89.1000 TC 25 23.9528 89.0923 1 5 6
1956227N18088 1956 74 NI BB NOT_NAMED 1956-08-18 15:00:00 TS 24.2150 89.1100 main 0 0 P________PO___ IO081956 24.2225 89.1150 -1 24.2225 89.1150 TC 25 24.2000 89.1000 1 4 0
1956227N18088 1956 74 NI BB NOT_NAMED 1956-08-18 18:00:00 TS 24.4049 89.0915 main 0 0 O________OP___ jtwc_io IO081956 24.4000 89.1000 -1 24.4000 89.1000 TC 25 24.4122 89.0787 1 4 351
1956227N18088 1956 74 NI BB NOT_NAMED 1956-08-18 21:00:00 TS 24.5711 89.0469 main 0 0 P________PP___ IO081956 24.5550 89.0575 -1 24.5550 89.0575 TC 25 24.5925 89.0328 1 3 343
1956227N18088 1956 74 NI BB NOT_NAMED 1956-08-19 00:00:00 TS 24.7258 88.9853 main 0 0 O________OP___ jtwc_io IO081956 24.7000 89.0000 -1 24.7000 89.0000 TC 25 24.7516 88.9706 1 4 338
1956227N18088 1956 74 NI BB NOT_NAMED 1956-08-19 03:00:00 NR 24.9000 88.9000 main 0 __________O___ IO081956 -1 TC 24.9000 88.9000 1 4 337

About IBTrACS Database

This database is a web-friendly format of International Best Track Archive for Climate Stewardship (IBTrACS), a global best track data archive curated by NOAA dating back to 1842.

Updated: 2021-12-03